createdAt,value
2023-04-13T00:07:41.144Z,29.60
2023-04-13T00:13:21.230Z,29.59
2023-04-13T00:19:03.796Z,29.68
2023-04-13T00:25:01.535Z,29.70
2023-04-13T00:30:44.293Z,29.71
2023-04-13T00:36:27.492Z,29.73
2023-04-13T00:42:27.291Z,29.73
2023-04-13T00:48:18.480Z,29.83
2023-04-13T00:59:57.034Z,29.86
2023-04-13T01:05:39.609Z,29.86
2023-04-13T01:12:15.107Z,29.87
2023-04-13T01:17:57.799Z,29.94
2023-04-13T01:23:40.222Z,29.95
2023-04-13T01:29:37.572Z,29.92
2023-04-13T01:39:58.310Z,29.92
2023-04-13T01:45:06.430Z,29.89
2023-04-13T01:50:13.771Z,29.90
2023-04-13T01:55:34.096Z,29.82
2023-04-13T02:00:51.514Z,29.90
2023-04-13T02:06:31.048Z,29.91
2023-04-13T02:12:28.653Z,29.80
2023-04-13T02:17:43.303Z,29.86
2023-04-13T02:22:56.282Z,29.88
2023-04-13T02:28:03.815Z,29.91
2023-04-13T02:33:12.639Z,29.93
2023-04-13T02:38:35.136Z,29.97
2023-04-13T02:43:42.734Z,29.91
2023-04-13T02:48:50.070Z,29.90
2023-04-13T02:53:58.013Z,29.79
2023-04-13T02:59:40.843Z,29.95
2023-04-13T03:05:23.787Z,29.95
2023-04-13T03:11:56.966Z,29.92
2023-04-13T03:15:44.278Z,29.93
2023-04-13T03:20:51.640Z,29.93
2023-04-13T03:25:58.904Z,29.94
2023-04-13T03:31:06.352Z,29.92
2023-04-13T03:36:13.448Z,29.99
2023-04-13T03:41:20.633Z,30.09
2023-04-13T03:46:27.937Z,30.04
2023-04-13T03:51:35.269Z,29.99
2023-04-13T03:56:42.484Z,29.99
2023-04-13T04:01:49.915Z,30.03
2023-04-13T04:06:57.064Z,30.04
2023-04-13T04:12:04.239Z,30.09
2023-04-13T04:17:11.448Z,30.08
2023-04-13T04:22:18.664Z,30.04
2023-04-13T04:27:25.912Z,30.06
2023-04-13T04:32:33.167Z,30.10
2023-04-13T04:37:40.395Z,30.01
2023-04-13T04:42:47.667Z,30.03
2023-04-13T04:47:54.974Z,29.97
2023-04-13T04:53:02.152Z,30.01
2023-04-13T04:58:09.322Z,30.10
2023-04-13T05:03:16.636Z,30.10
2023-04-13T05:08:23.782Z,30.14
2023-04-13T05:13:31.086Z,30.16
2023-04-13T05:18:38.277Z,30.09
2023-04-13T05:23:45.432Z,30.04
2023-04-13T05:28:52.752Z,30.08
2023-04-13T05:34:00.139Z,30.15
2023-04-13T05:39:07.197Z,30.19
2023-04-13T05:44:14.374Z,30.07
2023-04-13T05:49:21.628Z,30.13
2023-04-13T05:54:28.758Z,30.18
2023-04-13T05:59:35.942Z,29.96
2023-04-13T06:04:43.210Z,30.17
2023-04-13T06:09:50.293Z,30.11
2023-04-13T06:14:57.466Z,30.19
2023-04-13T06:20:04.715Z,30.26
2023-04-13T06:25:11.865Z,30.09
2023-04-13T06:30:19.095Z,30.30
2023-04-13T06:35:26.267Z,30.14
2023-04-13T06:40:33.422Z,30.17
2023-04-13T06:45:41.384Z,30.18
2023-04-13T06:50:48.604Z,30.15
2023-04-13T06:55:55.756Z,30.18
2023-04-13T07:01:03.197Z,30.14
2023-04-13T07:06:10.282Z,30.12
2023-04-13T07:11:17.515Z,30.16
2023-04-13T07:16:24.762Z,30.01
2023-04-13T07:21:31.958Z,30.02
2023-04-13T07:26:39.083Z,30.05
2023-04-13T07:31:46.324Z,30.05
2023-04-13T07:36:53.501Z,30.16
2023-04-13T07:42:00.745Z,30.30
2023-04-13T07:47:08.084Z,30.13
2023-04-13T07:52:15.240Z,30.10
2023-04-13T07:57:22.424Z,30.33
2023-04-13T08:02:29.899Z,30.23
2023-04-13T08:07:37.020Z,30.24
2023-04-13T08:12:44.299Z,30.15
2023-04-13T08:17:51.595Z,30.14
2023-04-13T08:22:58.857Z,30.11
2023-04-13T08:28:06.169Z,30.17
2023-04-13T08:33:13.443Z,30.01
2023-04-13T08:38:20.681Z,30.07
2023-04-13T08:43:27.879Z,30.01
2023-04-13T08:48:50.032Z,30.10
2023-04-13T08:53:42.460Z,29.97
2023-04-13T08:58:49.514Z,29.90
2023-04-13T09:03:56.833Z,29.96
2023-04-13T09:09:03.893Z,31.08
2023-04-13T09:14:11.102Z,30.45
2023-04-13T09:19:18.272Z,30.11
2023-04-13T09:24:25.556Z,30.12
2023-04-13T09:29:32.729Z,29.90
2023-04-13T09:34:39.889Z,29.76
2023-04-13T09:39:47.121Z,29.41
2023-04-13T09:44:54.295Z,29.33
2023-04-13T09:50:01.543Z,29.09
2023-04-13T09:55:08.781Z,28.67
2023-04-13T10:00:17.719Z,28.93
2023-04-13T10:05:23.297Z,28.92
2023-04-13T10:10:30.560Z,28.85
2023-04-13T10:15:37.890Z,28.76
2023-04-13T10:20:45.082Z,28.17
2023-04-13T10:25:52.414Z,28.70
2023-04-13T10:30:59.660Z,28.80
2023-04-13T10:36:06.829Z,28.24
2023-04-13T10:41:14.033Z,28.22
2023-04-13T10:46:21.220Z,28.15
2023-04-13T10:51:28.373Z,28.21
2023-04-13T10:56:35.624Z,28.07
2023-04-13T11:01:42.812Z,28.02
2023-04-13T11:06:49.967Z,28.17
2023-04-13T11:12:32.444Z,29.03
2023-04-13T11:17:39.832Z,29.01
2023-04-13T11:22:50.202Z,28.86
2023-04-13T11:27:58.485Z,29.25
2023-04-13T11:33:05.978Z,29.12
2023-04-13T11:38:13.333Z,29.35
2023-04-13T11:43:20.747Z,29.28
2023-04-13T11:48:28.041Z,29.25
2023-04-13T11:53:35.348Z,29.30
2023-04-13T11:58:42.581Z,29.29
2023-04-13T12:09:02.754Z,29.40
2023-04-13T12:14:10.245Z,28.99
2023-04-13T12:19:13.524Z,28.96
2023-04-13T12:24:18.974Z,28.93
2023-04-13T12:29:25.828Z,28.82
2023-04-13T12:34:33.026Z,28.80
2023-04-13T12:39:40.246Z,29.00
2023-04-13T12:44:47.587Z,28.96
2023-04-13T12:49:54.737Z,28.98
2023-04-13T12:55:02.252Z,29.11
2023-04-13T13:00:12.922Z,29.03
2023-04-13T13:05:19.239Z,29.16
2023-04-13T13:10:30.000Z,28.95
2023-04-13T13:15:34.077Z,29.20
2023-04-13T13:20:41.688Z,29.21
2023-04-13T13:26:07.571Z,29.39
2023-04-13T13:30:56.223Z,29.51
2023-04-13T13:36:05.577Z,29.63
2023-04-13T13:41:24.345Z,29.91
2023-04-13T13:46:26.038Z,30.04
2023-04-13T13:51:33.705Z,29.84
2023-04-13T13:56:41.393Z,29.76
2023-04-13T14:01:49.056Z,29.75
2023-04-13T14:06:56.329Z,29.69
2023-04-13T14:12:03.604Z,29.74
2023-04-13T14:17:14.233Z,29.75
2023-04-13T14:22:26.521Z,29.66
2023-04-13T14:27:48.971Z,29.69
2023-04-13T14:33:01.476Z,29.77
2023-04-13T14:38:30.024Z,29.75
2023-04-13T14:43:21.627Z,29.76
2023-04-13T14:48:29.251Z,29.78
2023-04-13T14:53:36.417Z,29.83
2023-04-13T14:58:43.646Z,29.77
2023-04-13T15:03:51.155Z,29.79
2023-04-13T15:08:58.789Z,29.80
2023-04-13T15:14:05.566Z,29.78
2023-04-13T15:19:17.709Z,29.55
2023-04-13T15:24:24.970Z,29.65
2023-04-13T15:29:32.365Z,29.51
2023-04-13T15:34:39.601Z,29.53
2023-04-13T15:39:49.581Z,29.53
2023-04-13T15:44:55.420Z,29.56
2023-04-13T15:50:02.577Z,29.55
2023-04-13T15:55:10.024Z,29.50
2023-04-13T16:00:17.517Z,29.43
2023-04-13T16:05:24.905Z,29.44
2023-04-13T16:10:32.113Z,29.53
2023-04-13T16:15:42.363Z,29.50
2023-04-13T16:20:49.156Z,29.42
2023-04-13T16:25:56.507Z,29.41
2023-04-13T16:31:03.836Z,29.27
2023-04-13T16:36:11.110Z,30.60
2023-04-13T16:41:19.369Z,29.84
2023-04-13T16:46:26.751Z,30.01
2023-04-13T16:51:33.999Z,29.83
2023-04-13T16:56:41.210Z,29.54
2023-04-13T17:01:49.252Z,29.37
2023-04-13T17:06:56.565Z,29.22
2023-04-13T17:12:04.013Z,29.12
2023-04-13T17:17:11.472Z,28.98
2023-04-13T17:22:18.730Z,28.85
2023-04-13T17:27:26.567Z,29.08
2023-04-13T17:32:34.300Z,28.92
2023-04-13T17:37:41.592Z,28.74
2023-04-13T17:42:48.747Z,28.83
2023-04-13T17:47:57.138Z,28.55
2023-04-13T17:53:04.808Z,28.46
2023-04-13T17:58:12.031Z,28.43
2023-04-13T18:03:20.198Z,28.28
2023-04-13T18:08:27.507Z,28.38
2023-04-13T18:13:35.194Z,28.80
2023-04-13T18:18:42.902Z,28.58
2023-04-13T18:23:50.547Z,28.61
2023-04-13T18:28:58.145Z,28.60
2023-04-13T18:34:06.174Z,28.50
2023-04-13T18:39:13.600Z,28.31
2023-04-13T18:44:20.904Z,28.19
2023-04-13T18:49:28.293Z,28.36
2023-04-13T18:54:35.822Z,28.21
2023-04-13T18:59:43.173Z,28.09
2023-04-13T19:04:50.591Z,27.87
2023-04-13T19:09:58.102Z,27.79
2023-04-13T19:15:05.751Z,27.67
2023-04-13T19:20:13.563Z,27.72
2023-04-13T19:25:21.223Z,27.64
2023-04-13T19:30:28.929Z,27.70
2023-04-13T19:35:36.593Z,27.77
2023-04-13T19:40:45.533Z,27.77
2023-04-13T19:45:53.200Z,28.14
2023-04-13T19:51:00.852Z,27.97
2023-04-13T19:56:08.450Z,27.88
2023-04-13T20:01:16.073Z,28.21
2023-04-13T20:06:24.046Z,28.09
2023-04-13T20:11:31.413Z,28.18
2023-04-13T20:16:38.704Z,28.00
2023-04-13T20:21:46.271Z,27.96
2023-04-13T20:26:53.753Z,28.00
2023-04-13T20:32:01.227Z,27.81
2023-04-13T20:37:08.651Z,27.91
2023-04-13T20:42:17.487Z,27.74
2023-04-13T20:47:26.391Z,27.87
2023-04-13T20:52:33.614Z,27.62
2023-04-13T20:57:40.812Z,27.56
2023-04-13T21:02:48.116Z,27.47
2023-04-13T21:07:57.448Z,27.37
2023-04-13T21:13:06.576Z,27.32
2023-04-13T21:18:13.846Z,27.34
2023-04-13T21:23:21.332Z,27.33
2023-04-13T21:28:28.645Z,27.30
2023-04-13T21:33:35.872Z,27.37
2023-04-13T21:38:43.187Z,27.19
2023-04-13T21:44:02.232Z,27.48
2023-04-13T21:49:47.500Z,27.24
2023-04-13T21:55:31.601Z,27.30
2023-04-13T22:01:19.343Z,27.33
2023-04-13T22:06:48.537Z,27.43
2023-04-13T22:12:31.157Z,27.50
2023-04-13T22:18:12.430Z,27.53
2023-04-13T22:23:11.896Z,27.62
2023-04-13T22:28:28.970Z,27.74
2023-04-13T22:33:41.681Z,27.73
2023-04-13T22:39:30.349Z,27.85
2023-04-13T22:49:33.491Z,27.91
2023-04-13T22:50:49.158Z,28.04
2023-04-13T22:55:30.539Z,28.11
2023-04-13T23:01:59.266Z,28.10
2023-04-13T23:06:38.314Z,28.19
2023-04-13T23:11:53.734Z,28.28
2023-04-13T23:17:16.562Z,28.28
2023-04-13T23:22:23.982Z,28.39
2023-04-13T23:27:33.714Z,28.46
2023-04-13T23:32:51.528Z,28.52
2023-04-13T23:37:54.269Z,28.62
2023-04-13T23:43:01.587Z,28.63
2023-04-13T23:48:08.789Z,28.78
2023-04-13T23:53:16.099Z,28.97
2023-04-13T23:58:23.363Z,29.18
